createdAt,value
2019-03-24T00:01:27.045Z,96.90
2019-03-24T00:03:57.909Z,97.40
2019-03-24T00:06:28.758Z,97.20
2019-03-24T00:08:59.646Z,97.30
2019-03-24T00:11:30.631Z,97.30
2019-03-24T00:14:01.518Z,97.40
2019-03-24T00:16:32.358Z,97.40
2019-03-24T00:19:03.302Z,97.60
2019-03-24T00:21:34.149Z,98.00
2019-03-24T00:24:05.021Z,97.90
2019-03-24T00:26:35.974Z,97.90
2019-03-24T00:29:06.878Z,98.00
2019-03-24T00:31:37.950Z,98.10
2019-03-24T00:34:08.854Z,98.10
2019-03-24T00:36:39.761Z,98.10
2019-03-24T00:39:10.709Z,98.10
2019-03-24T00:41:42.078Z,98.20
2019-03-24T00:44:12.958Z,98.20
2019-03-24T00:46:45.708Z,98.30
2019-03-24T00:49:16.561Z,98.40
2019-03-24T00:51:47.475Z,98.50
2019-03-24T00:54:18.392Z,98.60
2019-03-24T00:56:49.270Z,98.60
2019-03-24T00:59:20.109Z,98.60
2019-03-24T01:01:50.949Z,98.60
2019-03-24T01:04:21.827Z,98.50
2019-03-24T01:06:53.185Z,98.50
2019-03-24T01:09:24.078Z,98.90
2019-03-24T01:11:54.917Z,98.40
2019-03-24T01:14:25.862Z,98.50
2019-03-24T01:16:56.757Z,98.60
2019-03-24T01:19:27.681Z,98.70
2019-03-24T01:21:58.526Z,98.80
2019-03-24T01:24:29.418Z,98.70
2019-03-24T01:27:00.250Z,98.70
2019-03-24T01:29:31.131Z,98.70
2019-03-24T01:32:01.973Z,98.80
2019-03-24T01:34:32.862Z,98.80
2019-03-24T01:37:03.789Z,98.90
2019-03-24T01:39:34.747Z,98.80
2019-03-24T01:42:05.627Z,98.90
2019-03-24T01:44:36.450Z,99.00
2019-03-24T01:47:06.866Z,99.10
2019-03-24T01:49:38.281Z,99.00
2019-03-24T01:52:09.138Z,99.00
2019-03-24T01:54:40.370Z,98.90
2019-03-24T01:57:11.231Z,99.00
2019-03-24T01:59:42.096Z,99.00
2019-03-24T02:02:13.274Z,99.10
2019-03-24T02:04:44.171Z,99.10
2019-03-24T02:07:15.033Z,99.10
2019-03-24T02:09:46.513Z,99.10
2019-03-24T02:12:17.352Z,99.30
2019-03-24T02:14:48.223Z,99.20
2019-03-24T02:17:19.062Z,99.30
2019-03-24T02:19:49.917Z,99.10
2019-03-24T02:22:20.767Z,99.30
2019-03-24T02:24:51.710Z,99.30
2019-03-24T02:27:22.557Z,99.30
2019-03-24T02:29:53.578Z,99.30
2019-03-24T02:32:24.409Z,99.20
2019-03-24T02:34:55.270Z,99.30
2019-03-24T02:37:26.150Z,99.50
2019-03-24T02:39:56.978Z,99.60
2019-03-24T02:42:27.825Z,99.50
2019-03-24T02:44:58.662Z,99.40
2019-03-24T02:47:29.586Z,99.40
2019-03-24T02:50:00.523Z,99.50
2019-03-24T02:52:31.562Z,99.40
2019-03-24T02:55:02.412Z,99.40
2019-03-24T02:57:34.563Z,99.30
2019-03-24T03:00:06.433Z,99.30
2019-03-24T03:02:37.997Z,99.20
2019-03-24T03:05:10.340Z,99.30
2019-03-24T03:07:41.288Z,99.30
2019-03-24T03:10:12.574Z,99.30
2019-03-24T03:12:43.406Z,99.30
2019-03-24T03:15:15.993Z,99.40
2019-03-24T03:17:46.878Z,99.40
2019-03-24T03:20:17.978Z,99.30
2019-03-24T03:22:48.831Z,99.40
2019-03-24T03:25:19.700Z,99.40
2019-03-24T03:27:50.575Z,99.30
2019-03-24T03:30:21.435Z,99.30
2019-03-24T03:32:52.379Z,99.40
2019-03-24T03:35:23.275Z,99.30
2019-03-24T03:37:54.177Z,99.40
2019-03-24T03:40:25.110Z,99.20
2019-03-24T03:42:55.943Z,99.20
2019-03-24T03:45:28.955Z,99.20
2019-03-24T03:47:59.751Z,99.30
2019-03-24T03:50:30.654Z,99.30
2019-03-24T03:53:01.564Z,99.10
2019-03-24T03:55:32.403Z,99.10
2019-03-24T03:58:03.266Z,99.10
2019-03-24T04:00:35.870Z,99.20
2019-03-24T04:03:06.937Z,99.10
2019-03-24T04:05:37.863Z,99.10
2019-03-24T04:08:08.665Z,99.10
2019-03-24T04:10:39.903Z,99.00
2019-03-24T04:13:10.829Z,99.10
2019-03-24T04:15:41.785Z,99.20
2019-03-24T04:18:12.678Z,99.10
2019-03-24T04:20:43.630Z,99.10
2019-03-24T04:23:14.759Z,99.00
2019-03-24T04:25:45.611Z,99.00
2019-03-24T04:28:16.479Z,99.00
2019-03-24T04:30:47.329Z,98.90
2019-03-24T04:33:18.159Z,98.90
2019-03-24T04:35:49.041Z,98.80
2019-03-24T04:38:19.953Z,98.80
2019-03-24T04:40:50.849Z,98.90
2019-03-24T04:43:21.750Z,99.00
2019-03-24T04:45:52.707Z,99.00
2019-03-24T04:48:23.594Z,99.00
2019-03-24T04:50:54.558Z,99.00
2019-03-24T04:53:25.433Z,98.80
2019-03-24T04:55:56.396Z,98.80
2019-03-24T04:58:27.276Z,98.90
2019-03-24T05:00:58.137Z,99.40
2019-03-24T05:03:29.033Z,98.90
2019-03-24T05:05:59.971Z,98.90
2019-03-24T05:08:31.209Z,99.00
2019-03-24T05:11:02.102Z,99.00
2019-03-24T05:13:32.944Z,99.00
2019-03-24T05:16:03.876Z,99.10
2019-03-24T05:18:34.793Z,99.00
2019-03-24T05:21:05.684Z,99.10
2019-03-24T05:23:36.591Z,99.10
2019-03-24T05:26:07.489Z,99.10
2019-03-24T05:28:38.506Z,99.10
2019-03-24T05:31:09.366Z,99.10
2019-03-24T05:33:40.249Z,99.50
2019-03-24T05:36:11.177Z,99.10
2019-03-24T05:38:42.052Z,99.00
2019-03-24T05:41:12.928Z,99.20
2019-03-24T05:43:43.760Z,99.20
2019-03-24T05:46:14.669Z,99.20
2019-03-24T05:48:45.512Z,99.20
2019-03-24T05:51:16.453Z,99.20
2019-03-24T05:53:47.329Z,99.20
2019-03-24T05:56:18.198Z,99.10
2019-03-24T05:58:49.083Z,98.90
2019-03-24T06:01:19.956Z,99.00
2019-03-24T06:03:50.803Z,99.00
2019-03-24T06:06:21.657Z,99.00
2019-03-24T06:08:52.486Z,99.00
2019-03-24T06:11:23.370Z,99.00
2019-03-24T06:13:54.374Z,99.00
2019-03-24T06:16:25.320Z,98.90
2019-03-24T06:18:56.277Z,99.00
2019-03-24T06:21:27.247Z,98.90
2019-03-24T06:23:58.097Z,98.80
2019-03-24T06:26:29.115Z,98.80
2019-03-24T06:28:59.950Z,98.90
2019-03-24T06:31:30.885Z,99.00
2019-03-24T06:34:01.723Z,99.00
2019-03-24T06:36:32.553Z,99.00
2019-03-24T06:39:04.536Z,98.90
2019-03-24T06:41:35.458Z,99.00
2019-03-24T06:44:06.303Z,99.00
2019-03-24T06:46:37.176Z,99.00
2019-03-24T06:49:08.001Z,99.00
2019-03-24T06:51:39.315Z,99.10
2019-03-24T06:54:10.159Z,99.00
2019-03-24T06:56:41.031Z,98.90
2019-03-24T06:59:11.878Z,99.00
2019-03-24T07:01:42.763Z,99.00
2019-03-24T07:04:13.702Z,99.00
2019-03-24T07:06:44.558Z,99.00
2019-03-24T07:09:16.529Z,99.10
2019-03-24T07:11:47.542Z,99.20
2019-03-24T07:14:18.373Z,99.10
2019-03-24T07:16:49.317Z,99.10
2019-03-24T07:19:20.163Z,99.10
2019-03-24T07:21:51.033Z,99.10
2019-03-24T07:24:21.871Z,99.10
2019-03-24T07:26:52.804Z,99.20
2019-03-24T07:29:23.638Z,99.10
2019-03-24T07:31:54.508Z,99.10
2019-03-24T07:34:25.388Z,99.20
2019-03-24T07:36:56.208Z,99.20
2019-03-24T07:39:27.123Z,99.30
2019-03-24T07:41:58.003Z,99.30
2019-03-24T07:44:28.859Z,99.30
2019-03-24T07:46:59.739Z,99.20
2019-03-24T07:49:30.569Z,99.20
2019-03-24T07:52:01.424Z,99.30
2019-03-24T07:54:32.311Z,99.30
2019-03-24T07:57:03.247Z,99.30
2019-03-24T07:59:34.084Z,99.30
2019-03-24T08:02:04.980Z,99.40
2019-03-24T08:04:35.904Z,99.50
2019-03-24T08:07:06.750Z,99.50
2019-03-24T08:09:37.659Z,99.70
2019-03-24T08:12:08.507Z,99.80
2019-03-24T08:14:39.470Z,99.60
2019-03-24T08:17:11.420Z,99.70
2019-03-24T08:19:42.246Z,99.60
2019-03-24T08:22:13.162Z,99.60
2019-03-24T08:24:44.002Z,99.50
2019-03-24T08:27:14.858Z,99.60
2019-03-24T08:29:45.689Z,99.50
2019-03-24T08:32:16.618Z,99.50
2019-03-24T08:34:48.504Z,99.30
2019-03-24T08:37:19.693Z,99.40
2019-03-24T08:39:50.589Z,99.40
2019-03-24T08:42:21.453Z,99.50
2019-03-24T08:44:52.493Z,99.30
2019-03-24T08:47:23.366Z,99.40
2019-03-24T08:49:56.361Z,99.40
2019-03-24T08:52:27.272Z,99.20
2019-03-24T08:54:59.783Z,99.10
2019-03-24T08:57:32.420Z,99.20
2019-03-24T09:00:12.493Z,99.20
2019-03-24T09:02:43.571Z,99.10
2019-03-24T09:05:14.482Z,99.10
2019-03-24T09:07:46.182Z,99.00
2019-03-24T09:10:17.552Z,99.10
2019-03-24T09:12:48.653Z,99.10
2019-03-24T09:15:19.669Z,99.10
2019-03-24T09:17:50.489Z,98.90
2019-03-24T09:20:21.487Z,99.10
2019-03-24T09:22:52.317Z,99.10
2019-03-24T09:25:23.242Z,99.10
2019-03-24T09:27:54.091Z,99.00
2019-03-24T09:30:35.665Z,98.70
2019-03-24T09:33:06.705Z,98.90
2019-03-24T09:35:37.635Z,99.00
2019-03-24T09:38:08.589Z,98.70
2019-03-24T09:40:40.139Z,98.60
2019-03-24T09:43:12.082Z,98.30
2019-03-24T09:45:44.294Z,98.30
2019-03-24T09:48:15.922Z,98.10
2019-03-24T09:50:46.766Z,98.00
2019-03-24T09:53:17.621Z,98.10
2019-03-24T09:55:48.562Z,98.00
2019-03-24T09:58:19.436Z,98.00
2019-03-24T10:00:51.329Z,97.80
2019-03-24T10:03:21.830Z,97.70
2019-03-24T10:05:52.825Z,96.90
2019-03-24T10:08:23.681Z,96.80
2019-03-24T10:10:54.584Z,96.60
2019-03-24T10:13:25.832Z,96.20
2019-03-24T10:15:56.728Z,96.10
2019-03-24T10:18:27.629Z,96.00
2019-03-24T10:20:58.657Z,96.10
2019-03-24T10:23:29.505Z,96.00
2019-03-24T10:26:00.342Z,95.60
2019-03-24T10:28:31.239Z,95.70
2019-03-24T10:31:02.037Z,95.50
2019-03-24T10:33:33.009Z,94.70
2019-03-24T10:36:04.261Z,94.50
2019-03-24T10:38:35.341Z,95.10
2019-03-24T10:41:06.277Z,95.50
2019-03-24T10:43:37.153Z,95.90
2019-03-24T10:46:08.145Z,95.70
2019-03-24T10:48:39.134Z,95.80
2019-03-24T10:51:10.073Z,95.40
2019-03-24T10:53:41.105Z,95.40
2019-03-24T10:56:11.907Z,95.00
2019-03-24T10:58:42.749Z,94.90
2019-03-24T11:01:13.657Z,94.70
2019-03-24T11:03:44.493Z,94.70
2019-03-24T11:06:15.362Z,94.60
2019-03-24T11:08:46.248Z,94.60
2019-03-24T11:11:17.129Z,94.30
2019-03-24T11:13:47.980Z,94.20
2019-03-24T11:16:18.909Z,94.30
2019-03-24T11:18:49.937Z,94.10
2019-03-24T11:21:20.907Z,94.00
2019-03-24T11:23:51.763Z,93.90
2019-03-24T11:26:23.138Z,93.70
2019-03-24T11:28:54.017Z,93.40
2019-03-24T11:31:24.984Z,93.10
2019-03-24T11:33:55.854Z,93.50
2019-03-24T11:36:26.703Z,93.70
2019-03-24T11:38:59.151Z,93.20
2019-03-24T11:41:30.316Z,92.40
2019-03-24T11:44:01.205Z,91.80
2019-03-24T11:46:32.135Z,91.80
2019-03-24T11:49:02.989Z,91.90
2019-03-24T11:51:33.870Z,92.00
2019-03-24T11:54:04.837Z,90.70
2019-03-24T11:56:36.346Z,90.80
2019-03-24T11:59:07.570Z,90.40
2019-03-24T12:01:38.680Z,90.60
2019-03-24T12:04:09.667Z,90.10
2019-03-24T12:06:42.721Z,88.90
2019-03-24T12:09:13.780Z,88.60
2019-03-24T12:11:44.628Z,88.50
2019-03-24T12:14:15.572Z,87.00
2019-03-24T12:16:46.425Z,87.10
2019-03-24T12:19:18.562Z,88.30
2019-03-24T12:21:49.515Z,87.60
2019-03-24T12:24:20.526Z,85.80
2019-03-24T12:26:51.398Z,85.20
2019-03-24T12:29:22.459Z,84.90
2019-03-24T12:31:53.329Z,85.10
2019-03-24T12:34:24.231Z,84.40
2019-03-24T12:36:55.255Z,84.00
2019-03-24T12:39:26.320Z,82.50
2019-03-24T12:41:57.182Z,83.20
2019-03-24T12:44:28.047Z,80.30
2019-03-24T12:46:58.910Z,78.60
2019-03-24T12:49:30.055Z,80.90
2019-03-24T12:52:00.940Z,80.90
2019-03-24T12:54:39.499Z,80.10
2019-03-24T12:57:10.728Z,78.80
2019-03-24T12:59:56.479Z,79.70
2019-03-24T13:02:54.599Z,79.60
2019-03-24T13:05:25.487Z,79.70
2019-03-24T13:08:00.077Z,78.60
2019-03-24T13:10:32.145Z,78.30
2019-03-24T13:13:03.645Z,79.30
2019-03-24T13:15:34.666Z,80.30
2019-03-24T13:18:05.555Z,79.40
2019-03-24T13:20:38.894Z,79.40
2019-03-24T13:23:10.182Z,79.50
2019-03-24T13:25:43.240Z,78.40
2019-03-24T13:28:14.114Z,77.50
2019-03-24T13:30:47.293Z,77.00
2019-03-24T13:33:18.215Z,77.00
2019-03-24T13:35:53.009Z,75.10
2019-03-24T13:38:23.863Z,75.60
2019-03-24T13:40:54.825Z,75.60
2019-03-24T13:43:25.657Z,72.90
2019-03-24T13:45:57.446Z,73.60
2019-03-24T13:48:28.585Z,73.40
2019-03-24T13:50:59.578Z,74.00
2019-03-24T13:53:30.509Z,73.10
2019-03-24T13:56:01.573Z,73.40
2019-03-24T13:58:32.486Z,72.00
2019-03-24T14:01:04.646Z,72.20
2019-03-24T14:03:35.792Z,71.80
2019-03-24T14:06:06.804Z,71.10
2019-03-24T14:08:37.997Z,70.80
2019-03-24T14:11:13.569Z,72.00
2019-03-24T14:13:45.602Z,72.50
2019-03-24T14:16:16.400Z,73.00
2019-03-24T14:18:47.337Z,73.00
2019-03-24T14:21:18.247Z,73.30
2019-03-24T14:23:49.162Z,73.50
2019-03-24T14:26:20.066Z,75.00
2019-03-24T14:28:50.960Z,73.10
2019-03-24T14:31:21.851Z,71.40
2019-03-24T14:33:52.798Z,72.60
2019-03-24T14:36:23.704Z,71.60
2019-03-24T14:38:54.672Z,71.50
2019-03-24T14:41:25.514Z,70.90
2019-03-24T14:43:56.361Z,70.90
2019-03-24T14:46:27.880Z,70.00
2019-03-24T14:48:58.791Z,69.90
2019-03-24T14:51:29.652Z,70.00
2019-03-24T14:54:00.666Z,70.20
2019-03-24T14:56:33.954Z,69.30
2019-03-24T14:59:04.900Z,70.90
2019-03-24T15:01:35.729Z,69.20
2019-03-24T15:04:06.583Z,70.60
2019-03-24T15:06:37.485Z,69.50
2019-03-24T15:09:08.751Z,68.90
2019-03-24T15:11:40.959Z,68.80
2019-03-24T15:14:11.867Z,69.00
2019-03-24T15:16:44.452Z,69.50
2019-03-24T15:19:16.389Z,69.40
2019-03-24T15:21:47.281Z,68.60
2019-03-24T15:24:18.379Z,68.00
2019-03-24T15:26:49.331Z,68.50
2019-03-24T15:29:20.260Z,69.80
2019-03-24T15:31:51.358Z,66.40
2019-03-24T15:34:22.957Z,65.20
2019-03-24T15:36:55.119Z,65.30
2019-03-24T15:39:29.028Z,66.40
2019-03-24T15:42:02.540Z,66.90
2019-03-24T15:44:35.461Z,67.20
2019-03-24T15:47:08.511Z,67.10
2019-03-24T15:49:42.055Z,65.70
2019-03-24T15:52:15.398Z,66.10
2019-03-24T15:54:49.488Z,66.30
2019-03-24T15:57:21.744Z,65.70
2019-03-24T15:59:55.251Z,64.40
2019-03-24T16:02:27.963Z,63.10
2019-03-24T16:04:59.702Z,64.90
2019-03-24T16:07:31.480Z,64.50
2019-03-24T16:10:02.850Z,64.80
2019-03-24T16:12:33.752Z,63.90
2019-03-24T16:15:07.180Z,64.90
2019-03-24T16:17:40.656Z,63.20
2019-03-24T16:20:15.025Z,62.70
2019-03-24T16:22:46.874Z,62.70
2019-03-24T16:25:21.288Z,62.10
2019-03-24T16:27:53.621Z,60.20
2019-03-24T16:30:26.014Z,61.40
2019-03-24T16:32:58.590Z,60.50
2019-03-24T16:35:30.919Z,59.50
2019-03-24T16:38:02.971Z,60.10
2019-03-24T16:40:34.778Z,59.80
2019-03-24T16:43:07.464Z,60.40
2019-03-24T16:45:40.888Z,60.50
2019-03-24T16:48:14.194Z,60.30
2019-03-24T16:50:47.862Z,61.10
2019-03-24T16:53:20.257Z,61.10
2019-03-24T16:55:52.798Z,61.60
2019-03-24T16:58:24.581Z,61.20
2019-03-24T17:00:56.257Z,61.40
2019-03-24T17:03:28.674Z,61.30
2019-03-24T17:06:00.919Z,61.30
2019-03-24T17:08:33.754Z,60.60
2019-03-24T17:11:05.768Z,60.60
2019-03-24T17:13:38.810Z,60.90
2019-03-24T17:16:11.201Z,60.10
2019-03-24T17:18:44.168Z,60.20
2019-03-24T17:21:16.554Z,60.00
2019-03-24T17:23:49.161Z,59.90
2019-03-24T17:26:22.064Z,60.30
2019-03-24T17:28:53.733Z,60.40
2019-03-24T17:31:26.347Z,60.10
2019-03-24T17:33:58.432Z,60.50
2019-03-24T17:36:30.885Z,60.20
2019-03-24T17:39:03.574Z,58.80
2019-03-24T17:41:36.039Z,59.60
2019-03-24T17:44:12.700Z,58.80
2019-03-24T17:46:44.978Z,58.40
2019-03-24T17:49:17.239Z,59.10
2019-03-24T17:52:00.207Z,60.80
2019-03-24T17:54:24.416Z,59.80
2019-03-24T17:59:07.923Z,58.80
2019-03-24T18:01:38.985Z,58.70
2019-03-24T18:04:11.418Z,58.40
2019-03-24T18:06:43.745Z,57.80
2019-03-24T18:09:15.718Z,56.80
2019-03-24T18:11:49.269Z,57.30
2019-03-24T18:14:22.029Z,57.20
2019-03-24T18:16:53.068Z,57.10
2019-03-24T18:19:24.117Z,57.30
2019-03-24T18:21:55.070Z,56.90
2019-03-24T18:24:25.948Z,57.50
2019-03-24T18:26:56.910Z,57.60
2019-03-24T18:29:27.820Z,57.50
2019-03-24T18:31:58.805Z,57.50
2019-03-24T18:34:29.818Z,57.50
2019-03-24T18:37:00.724Z,57.80
2019-03-24T18:39:31.605Z,57.80
2019-03-24T18:42:03.765Z,57.80
2019-03-24T18:44:34.629Z,58.00
2019-03-24T18:47:05.893Z,57.70
2019-03-24T18:49:37.064Z,57.80
2019-03-24T18:52:07.483Z,57.90
2019-03-24T18:54:38.518Z,58.00
2019-03-24T18:57:09.350Z,57.80
2019-03-24T18:59:40.655Z,58.10
2019-03-24T19:02:11.482Z,57.70
2019-03-24T19:04:42.514Z,58.10
2019-03-24T19:07:13.437Z,58.30
2019-03-24T19:09:44.429Z,58.10
2019-03-24T19:12:15.294Z,57.70
2019-03-24T19:14:46.930Z,57.70
2019-03-24T19:17:18.238Z,57.80
2019-03-24T19:19:49.568Z,57.70
2019-03-24T19:22:20.632Z,57.80
2019-03-24T19:24:52.330Z,57.80
2019-03-24T19:27:23.816Z,57.80
2019-03-24T19:29:54.812Z,57.80
2019-03-24T19:32:27.196Z,58.00
2019-03-24T19:34:58.163Z,57.80
2019-03-24T19:37:29.129Z,57.70
2019-03-24T19:40:00.460Z,58.00
2019-03-24T19:42:32.105Z,58.10
2019-03-24T19:45:12.117Z,58.20
2019-03-24T19:47:46.723Z,58.30
2019-03-24T19:50:17.561Z,58.50
2019-03-24T19:52:50.655Z,58.70
2019-03-24T19:55:21.634Z,58.90
2019-03-24T19:57:53.212Z,58.50
2019-03-24T20:00:24.934Z,58.40
2019-03-24T20:02:55.442Z,58.50
2019-03-24T20:05:27.058Z,58.70
2019-03-24T20:07:58.146Z,59.00
2019-03-24T20:10:29.391Z,59.10
2019-03-24T20:13:00.418Z,58.70
2019-03-24T20:15:31.340Z,59.50
2019-03-24T20:18:02.387Z,59.70
2019-03-24T20:20:33.378Z,59.70
2019-03-24T20:23:04.458Z,60.00
2019-03-24T20:25:35.406Z,60.20
2019-03-24T20:28:06.311Z,60.90
2019-03-24T20:30:37.224Z,61.20
2019-03-24T20:33:09.468Z,62.50
2019-03-24T20:35:41.928Z,62.00
2019-03-24T20:38:12.813Z,62.30
2019-03-24T20:40:44.235Z,62.70
2019-03-24T20:43:15.403Z,62.80
2019-03-24T20:45:46.690Z,63.10
2019-03-24T20:48:20.687Z,63.30
2019-03-24T20:50:51.657Z,63.50
2019-03-24T20:53:22.606Z,63.70
2019-03-24T20:55:53.577Z,63.80
2019-03-24T20:58:25.677Z,64.10
2019-03-24T21:00:56.541Z,64.20
2019-03-24T21:03:27.560Z,64.40
2019-03-24T21:05:58.628Z,64.70
2019-03-24T21:08:29.589Z,65.00
2019-03-24T21:11:00.525Z,65.10
2019-03-24T21:13:31.398Z,65.30
2019-03-24T21:16:02.502Z,65.40
2019-03-24T21:18:33.328Z,65.40
2019-03-24T21:21:04.181Z,65.50
2019-03-24T21:23:35.078Z,66.70
2019-03-24T21:26:07.001Z,65.90
2019-03-24T21:28:38.413Z,66.00
2019-03-24T21:31:09.326Z,66.10
2019-03-24T21:33:40.420Z,66.20
2019-03-24T21:36:11.333Z,66.30
2019-03-24T21:38:42.477Z,66.80
2019-03-24T21:41:13.372Z,67.20
2019-03-24T21:43:44.245Z,68.10
2019-03-24T21:46:15.201Z,67.40
2019-03-24T21:48:46.155Z,67.70
2019-03-24T21:51:17.099Z,67.80
2019-03-24T21:53:47.960Z,67.80
2019-03-24T21:56:18.834Z,68.30
2019-03-24T21:58:49.737Z,68.70
2019-03-24T22:01:21.158Z,68.80
2019-03-24T22:03:52.013Z,69.00
2019-03-24T22:06:24.108Z,69.40
2019-03-24T22:08:55.157Z,70.00
2019-03-24T22:11:26.098Z,70.00
2019-03-24T22:14:01.117Z,70.10
2019-03-24T22:16:32.400Z,70.40
2019-03-24T22:19:07.838Z,70.50
2019-03-24T22:21:42.510Z,70.80
2019-03-24T22:24:18.249Z,70.90
2019-03-24T22:26:49.213Z,71.30
2019-03-24T22:29:20.083Z,71.50
2019-03-24T22:31:50.988Z,71.50
2019-03-24T22:34:21.859Z,71.80
2019-03-24T22:39:32.221Z,71.90
2019-03-24T22:42:03.118Z,72.30
2019-03-24T22:44:33.969Z,72.50
2019-03-24T22:47:04.840Z,72.90
2019-03-24T22:49:37.424Z,73.10
2019-03-24T22:52:08.374Z,73.40
2019-03-24T22:54:39.286Z,73.50
2019-03-24T22:57:10.237Z,73.80
2019-03-24T22:59:41.145Z,74.20
2019-03-24T23:02:12.141Z,74.40
2019-03-24T23:04:42.998Z,74.80
2019-03-24T23:07:14.024Z,74.80
2019-03-24T23:09:44.954Z,74.80
2019-03-24T23:12:15.858Z,75.10
2019-03-24T23:14:46.881Z,75.10
2019-03-24T23:17:17.770Z,75.40
2019-03-24T23:19:48.672Z,75.50
2019-03-24T23:22:19.581Z,76.10
2019-03-24T23:24:50.584Z,75.80
2019-03-24T23:27:21.585Z,76.20
2019-03-24T23:29:52.433Z,77.10
2019-03-24T23:32:24.487Z,76.50
2019-03-24T23:34:57.268Z,76.90
2019-03-24T23:37:28.027Z,77.00
2019-03-24T23:39:58.894Z,77.00
2019-03-24T23:42:29.780Z,76.90
2019-03-24T23:45:00.699Z,76.90
2019-03-24T23:47:31.546Z,77.40
2019-03-24T23:50:02.409Z,77.40
2019-03-24T23:52:33.268Z,77.50
2019-03-24T23:55:04.747Z,77.90
2019-03-24T23:57:35.643Z,78.10
